Time;durP1;ratioP1;P1;durP2;ratioP2;P2;SDS_P1;SDS_P2;PMS_P1;PMS_P2;Temp;Humidity;BMP_temperature;BMP_pressure;BME280_temperature;BME280_humidity;BME280_pressure;Samples;Min_cycle;Max_cycle;Signal;HPM_P1;HPM_P2
2023/03/17 00:01:49;;;;;;;6.07;3.63;;;7.50;99.90;;;;;;7362263;19;20021;-68
2023/03/17 00:04:20;;;;;;;6.60;3.40;;;7.50;99.90;;;;;;7366500;19;20039;-68
2023/03/17 00:06:47;;;;;;;7.22;4.20;;;7.50;99.90;;;;;;7378714;19;20070;-68
2023/03/17 00:09:16;;;;;;;6.25;3.40;;;7.50;99.90;;;;;;7374628;19;20485;-68
2023/03/17 00:11:44;;;;;;;6.97;3.60;;;7.50;99.90;;;;;;7379179;19;20026;-68
2023/03/17 00:14:11;;;;;;;5.38;3.47;;;7.50;99.90;;;;;;7378286;19;20045;-68
2023/03/17 00:16:41;;;;;;;5.78;3.75;;;7.60;99.90;;;;;;7377187;19;20011;-68
2023/03/17 00:19:15;;;;;;;5.72;3.05;;;7.60;99.90;;;;;;7374362;19;20018;-68
2023/03/17 00:21:42;;;;;;;5.38;3.40;;;7.60;99.90;;;;;;7375101;19;20108;-68
2023/03/17 00:24:10;;;;;;;8.00;3.58;;;7.60;99.90;;;;;;7375313;19;20042;-68
2023/03/17 00:26:37;;;;;;;6.45;3.38;;;7.60;99.90;;;;;;7373710;19;20019;-68
2023/03/17 00:29:04;;;;;;;5.57;3.53;;;7.60;99.90;;;;;;7373424;19;20039;-68
2023/03/17 00:31:32;;;;;;;6.85;3.70;;;7.50;99.90;;;;;;7370260;19;20018;-68
2023/03/17 00:33:59;;;;;;;6.32;3.83;;;7.60;99.90;;;;;;7375020;19;20019;-68
2023/03/17 00:36:31;;;;;;;6.30;3.90;;;7.60;99.90;;;;;;7375828;19;20034;-68
2023/03/17 00:38:58;;;;;;;5.30;3.50;;;7.60;99.90;;;;;;7374499;19;20019;-68
2023/03/17 00:41:26;;;;;;;5.28;3.30;;;7.60;99.90;;;;;;7373746;19;20022;-68
2023/03/17 00:43:52;;;;;;;4.60;3.30;;;7.60;99.90;;;;;;7374652;19;20031;-67
2023/03/17 00:46:34;;;;;;;7.20;3.78;;;7.60;99.90;;;;;;7371280;19;20022;-68
2023/03/17 00:49:05;;;;;;;;;;;7.60;99.90;;;;;;7374672;19;20014;-68
2023/03/17 00:51:31;;;;;;;4.85;3.50;;;7.60;99.90;;;;;;7373546;19;19937;-67
2023/03/17 00:53:57;;;;;;;5.35;3.70;;;7.60;99.90;;;;;;7371113;19;20081;-67
2023/03/17 00:56:26;;;;;;;6.50;3.80;;;7.60;99.90;;;;;;7372784;19;20018;-66
2023/03/17 00:58:52;;;;;;;6.15;3.45;;;7.60;99.90;;;;;;7373376;19;20716;-68
2023/03/17 01:01:19;;;;;;;6.60;4.32;;;7.60;99.90;;;;;;7374341;19;20022;-68
2023/03/17 01:03:46;;;;;;;5.07;3.47;;;7.60;99.90;;;;;;7376648;19;20022;-66
2023/03/17 01:06:15;;;;;;;4.97;3.38;;;7.60;99.90;;;;;;7371171;19;20052;-67
2023/03/17 01:08:43;;;;;;;5.72;3.33;;;7.60;99.90;;;;;;7373536;19;20022;-68
2023/03/17 01:11:20;;;;;;;6.25;3.80;;;7.60;99.90;;;;;;7368391;19;20426;-68
2023/03/17 01:13:46;;;;;;;4.78;3.30;;;7.60;99.90;;;;;;7369813;19;20025;-68
2023/03/17 01:16:22;;;;;;;9.43;4.05;;;7.50;99.90;;;;;;7371250;19;20029;-66
2023/03/17 01:18:49;;;;;;;7.20;3.97;;;7.60;99.90;;;;;;7367259;19;20363;-66
2023/03/17 01:21:15;;;;;;;6.20;4.20;;;7.60;99.90;;;;;;7369579;19;20059;-66
2023/03/17 01:23:47;;;;;;;6.07;3.55;;;7.50;99.90;;;;;;7369421;19;20097;-66
2023/03/17 01:26:13;;;;;;;5.05;3.35;;;7.50;99.90;;;;;;7373783;19;20020;-67
2023/03/17 01:28:39;;;;;;;5.57;3.90;;;7.50;99.90;;;;;;7373831;19;20022;-67
2023/03/17 01:31:05;;;;;;;5.82;3.50;;;7.50;99.90;;;;;;7372923;19;20020;-68
2023/03/17 01:33:32;;;;;;;4.47;3.35;;;7.50;99.90;;;;;;7375025;19;20032;-68
2023/03/17 01:35:59;;;;;;;5.75;3.70;;;7.50;99.90;;;;;;7376120;19;20019;-66
2023/03/17 01:38:26;;;;;;;6.40;3.78;;;7.40;99.90;;;;;;7372824;19;20097;-66
2023/03/17 01:40:53;;;;;;;6.70;3.67;;;7.40;99.90;;;;;;7366776;19;20469;-66
2023/03/17 01:43:27;;;;;;;5.93;3.55;;;7.40;99.90;;;;;;7370748;19;20479;-66
2023/03/17 01:46:26;;;;;;;5.25;3.53;;;7.40;99.90;;;;;;7373519;19;20127;-66
2023/03/17 01:49:05;;;;;;;4.97;3.72;;;7.30;99.90;;;;;;7376604;19;20027;-66
2023/03/17 01:51:38;;;;;;;7.03;3.60;;;7.40;99.90;;;;;;7373643;19;20025;-66
2023/03/17 01:54:09;;;;;;;5.25;3.50;;;7.40;99.90;;;;;;7373151;19;20039;-66
2023/03/17 01:56:39;;;;;;;4.97;3.40;;;7.40;99.90;;;;;;7371250;19;20030;-66
2023/03/17 01:59:08;;;;;;;5.95;3.60;;;7.40;99.90;;;;;;7373043;19;20018;-66
2023/03/17 02:01:46;;;;;;;8.30;3.80;;;7.30;99.90;;;;;;7374933;19;20014;-67
2023/03/17 02:04:13;;;;;;;4.53;3.35;;;7.40;99.90;;;;;;7374560;19;20599;-66
2023/03/17 02:06:40;;;;;;;5.97;3.83;;;7.30;99.90;;;;;;7375011;19;20057;-66
2023/03/17 02:09:08;;;;;;;6.50;3.65;;;7.30;99.90;;;;;;7372633;19;20074;-66
2023/03/17 02:11:35;;;;;;;5.35;3.70;;;7.30;99.90;;;;;;7371644;19;20725;-66
2023/03/17 02:14:01;;;;;;;7.72;3.90;;;7.30;99.90;;;;;;7371615;19;20386;-66
2023/03/17 02:16:29;;;;;;;7.50;4.13;;;7.30;99.90;;;;;;7373664;19;20025;-66
2023/03/17 02:18:56;;;;;;;7.53;4.43;;;7.30;99.90;;;;;;7372997;19;20022;-67
2023/03/17 02:21:41;;;;;;;5.85;3.95;;;7.30;99.90;;;;;;7371501;19;20039;-66
2023/03/17 02:24:16;;;;;;;6.43;3.55;;;7.30;99.90;;;;;;7372022;19;20022;-66
2023/03/17 02:26:44;;;;;;;5.70;3.92;;;7.30;99.90;;;;;;7379872;19;20025;-66
2023/03/17 02:29:11;;;;;;;9.20;4.10;;;7.30;99.90;;;;;;7380673;19;20370;-66
2023/03/17 02:31:41;;;;;;;8.02;3.95;;;7.30;99.90;;;;;;7379898;19;20106;-68
2023/03/17 02:34:08;;;;;;;5.55;3.70;;;7.30;99.90;;;;;;7377280;19;20742;-68
2023/03/17 02:36:37;;;;;;;6.03;3.75;;;7.30;99.90;;;;;;7376470;19;20015;-68
2023/03/17 02:39:04;;;;;;;6.45;3.67;;;7.30;99.90;;;;;;7378071;19;20086;-68
2023/03/17 02:41:30;;;;;;;7.15;4.00;;;7.30;99.90;;;;;;7379494;19;20596;-68
2023/03/17 02:43:57;;;;;;;6.80;3.60;;;7.30;99.90;;;;;;7379414;19;20078;-67
2023/03/17 02:46:23;;;;;;;4.90;3.50;;;7.30;99.90;;;;;;7377664;19;20820;-67
2023/03/17 02:48:50;;;;;;;9.15;3.92;;;7.30;99.90;;;;;;7376379;19;20010;-68
2023/03/17 02:51:17;;;;;;;5.32;3.50;;;7.30;99.90;;;;;;7379980;19;20018;-68
2023/03/17 02:53:43;;;;;;;7.13;4.13;;;7.30;99.90;;;;;;7382204;19;20018;-67
2023/03/17 02:56:14;;;;;;;10.33;4.43;;;7.30;99.90;;;;;;7380081;19;20043;-68
2023/03/17 02:58:40;;;;;;;5.65;3.95;;;7.30;99.90;;;;;;7375713;19;20018;-67
2023/03/17 03:01:08;;;;;;;5.28;3.63;;;7.30;99.90;;;;;;7377464;19;20028;-68
2023/03/17 03:03:35;;;;;;;6.82;3.60;;;7.30;99.90;;;;;;7378214;19;20019;-69
2023/03/17 03:06:02;;;;;;;5.95;3.83;;;7.20;99.90;;;;;;7376895;19;20025;-69
2023/03/17 03:08:28;;;;;;;6.00;3.30;;;7.20;99.90;;;;;;7381447;19;20359;-69
2023/03/17 03:10:54;;;;;;;5.00;3.70;;;7.20;99.90;;;;;;7372448;19;20817;-69
2023/03/17 03:13:21;;;;;;;5.30;3.50;;;7.20;99.90;;;;;;7378196;19;20388;-69
2023/03/17 03:15:48;;;;;;;5.45;3.33;;;7.20;99.90;;;;;;7375644;19;20022;-69
2023/03/17 03:18:15;;;;;;;6.57;3.88;;;7.20;99.90;;;;;;7376121;19;20014;-69
2023/03/17 03:20:43;;;;;;;6.07;4.00;;;7.20;99.90;;;;;;7376783;19;20526;-69
2023/03/17 03:23:10;;;;;;;5.50;3.38;;;7.20;99.90;;;;;;7379050;19;20389;-69
2023/03/17 03:25:37;;;;;;;6.55;4.40;;;7.10;99.90;;;;;;7377063;19;20401;-69
2023/03/17 03:28:06;;;;;;;6.80;4.25;;;7.10;99.90;;;;;;7379699;19;20533;-69
2023/03/17 03:30:34;;;;;;;6.68;3.70;;;7.10;99.90;;;;;;7379906;19;20026;-69
2023/03/17 03:33:02;;;;;;;4.93;3.55;;;7.10;99.90;;;;;;7379590;19;20023;-69
2023/03/17 03:35:30;;;;;;;5.57;4.20;;;7.10;99.90;;;;;;7377436;19;20022;-69
2023/03/17 03:37:57;;;;;;;5.03;3.33;;;7.20;99.90;;;;;;7376936;19;20619;-69
2023/03/17 03:40:24;;;;;;;8.25;4.20;;;7.20;99.90;;;;;;7375609;19;20488;-69
2023/03/17 03:42:54;;;;;;;5.43;3.80;;;7.30;99.90;;;;;;7377359;19;20094;-68
2023/03/17 03:45:20;;;;;;;6.35;3.75;;;7.30;99.90;;;;;;7377725;19;20840;-67
2023/03/17 03:47:46;;;;;;;6.57;3.65;;;7.30;99.90;;;;;;7378474;19;20015;-67
2023/03/17 03:50:13;;;;;;;5.68;3.60;;;7.30;99.90;;;;;;7376881;19;20022;-67
2023/03/17 03:52:42;;;;;;;6.32;3.85;;;7.30;99.90;;;;;;7375489;19;20018;-68
2023/03/17 03:55:10;;;;;;;5.93;3.40;;;7.30;99.90;;;;;;7376745;19;20029;-68
2023/03/17 03:57:37;;;;;;;7.28;3.67;;;7.30;99.90;;;;;;7372678;19;20381;-67
2023/03/17 04:00:06;;;;;;;6.50;4.32;;;7.20;99.90;;;;;;7376541;19;20556;-68
2023/03/17 04:02:40;;;;;;;5.32;3.53;;;7.20;99.90;;;;;;7375461;19;20010;-68
2023/03/17 04:05:08;;;;;;;7.03;3.50;;;7.20;99.90;;;;;;7377315;19;20090;-67
2023/03/17 04:07:35;;;;;;;7.85;3.80;;;7.20;99.90;;;;;;7373643;19;20023;-68
2023/03/17 04:10:02;;;;;;;5.57;3.95;;;7.20;99.90;;;;;;7376686;19;20086;-68
2023/03/17 04:12:30;;;;;;;5.43;3.42;;;7.20;99.90;;;;;;7375670;19;20038;-67
2023/03/17 04:14:56;;;;;;;6.97;3.85;;;7.20;99.90;;;;;;7376164;19;20478;-68
2023/03/17 04:17:23;;;;;;;6.60;3.90;;;7.20;99.90;;;;;;7376707;19;20022;-68
2023/03/17 04:19:51;;;;;;;6.72;3.90;;;7.20;99.90;;;;;;7372605;19;20023;-68
2023/03/17 04:22:22;;;;;;;7.63;4.30;;;7.20;99.90;;;;;;7370767;19;20777;-69
2023/03/17 04:24:49;;;;;;;6.35;3.78;;;7.20;99.90;;;;;;7373231;19;20023;-69
2023/03/17 04:27:18;;;;;;;5.47;4.03;;;7.20;99.90;;;;;;7368278;19;20604;-69
2023/03/17 04:29:44;;;;;;;5.65;3.63;;;7.20;99.90;;;;;;7374467;19;20019;-69
2023/03/17 04:32:15;;;;;;;5.68;3.85;;;7.10;99.90;;;;;;7373522;19;20026;-69
2023/03/17 04:34:41;;;;;;;5.63;3.30;;;7.10;99.90;;;;;;7376270;19;20120;-70
2023/03/17 04:37:09;;;;;;;5.78;3.75;;;7.20;99.90;;;;;;7376705;19;20031;-69
2023/03/17 04:39:36;;;;;;;4.85;3.33;;;7.10;99.90;;;;;;7372561;19;20050;-69
2023/03/17 04:42:03;;;;;;;5.55;3.55;;;7.10;99.90;;;;;;7377091;19;20022;-69
2023/03/17 04:44:30;;;;;;;5.30;3.88;;;7.20;99.90;;;;;;7373864;19;20450;-69
2023/03/17 04:46:57;;;;;;;6.60;3.33;;;7.10;99.90;;;;;;7374293;19;20631;-69
2023/03/17 04:49:23;;;;;;;5.10;3.72;;;7.10;99.90;;;;;;7373315;19;20018;-69
2023/03/17 04:51:49;;;;;;;7.22;3.42;;;7.10;99.90;;;;;;7374613;19;20031;-69
2023/03/17 04:54:16;;;;;;;5.28;3.30;;;7.10;99.90;;;;;;7373411;19;20049;-69
2023/03/17 04:56:44;;;;;;;6.80;3.85;;;7.10;99.90;;;;;;7372431;19;20019;-69
2023/03/17 04:59:11;;;;;;;5.93;3.75;;;7.10;99.90;;;;;;7373174;19;20030;-69
2023/03/17 05:01:37;;;;;;;5.38;3.92;;;7.10;99.90;;;;;;7373178;19;20019;-68
2023/03/17 05:04:04;;;;;;;7.22;3.75;;;7.10;99.90;;;;;;7375261;19;20014;-69
2023/03/17 05:06:30;;;;;;;5.90;3.63;;;7.10;99.90;;;;;;7373825;19;20018;-69
2023/03/17 05:08:56;;;;;;;4.75;3.30;;;7.10;99.90;;;;;;7371523;19;20037;-69
2023/03/17 05:11:23;;;;;;;7.30;3.05;;;7.10;99.90;;;;;;7374043;19;20481;-69
2023/03/17 05:13:49;;;;;;;4.85;3.35;;;7.10;99.90;;;;;;7370025;19;20029;-68
2023/03/17 05:16:15;;;;;;;4.53;3.33;;;7.10;99.90;;;;;;7373169;19;20291;-68
2023/03/17 05:18:42;;;;;;;6.68;3.65;;;7.20;99.90;;;;;;7369382;19;20027;-68
2023/03/17 05:21:09;;;;;;;5.38;3.45;;;7.20;99.90;;;;;;7369649;19;20413;-68
2023/03/17 05:23:37;;;;;;;7.10;3.75;;;7.20;99.90;;;;;;7370522;19;20075;-67
2023/03/17 05:26:03;;;;;;;5.70;3.58;;;7.20;99.90;;;;;;7367712;19;20022;-67
2023/03/17 05:28:31;;;;;;;6.03;3.90;;;7.20;99.90;;;;;;7365950;19;20015;-67
2023/03/17 05:30:57;;;;;;;7.68;3.83;;;7.20;99.90;;;;;;7368695;19;20058;-68
2023/03/17 05:33:45;;;;;;;5.25;2.95;;;7.20;99.90;;;;;;7370845;19;20030;-68
2023/03/17 05:36:32;;;;;;;4.82;3.40;;;7.10;99.90;;;;;;7369451;19;20022;-68
2023/03/17 05:39:18;;;;;;;6.35;3.70;;;7.10;99.90;;;;;;7369539;19;20035;-68
2023/03/17 05:42:05;;;;;;;8.13;3.42;;;7.10;99.90;;;;;;7371409;19;20612;-68
2023/03/17 05:44:51;;;;;;;7.80;3.60;;;7.10;99.90;;;;;;7369775;19;20025;-67
2023/03/17 05:47:17;;;;;;;6.45;3.33;;;7.10;99.90;;;;;;7369277;19;20052;-67
2023/03/17 05:49:43;;;;;;;5.97;3.30;;;7.10;99.90;;;;;;7368923;19;20019;-67
2023/03/17 05:52:13;;;;;;;7.80;3.75;;;7.10;99.90;;;;;;7370880;19;20061;-68
2023/03/17 05:54:46;;;;;;;4.75;3.70;;;7.10;99.90;;;;;;7370542;19;20062;-69
2023/03/17 05:57:12;;;;;;;5.90;3.88;;;7.20;99.90;;;;;;7370937;19;20010;-68
2023/03/17 05:59:40;;;;;;;4.82;3.38;;;7.10;99.90;;;;;;7369663;19;20026;-67
2023/03/17 06:02:06;;;;;;;5.15;3.78;;;7.20;99.90;;;;;;7368464;19;20018;-69
2023/03/17 06:04:33;;;;;;;6.20;3.90;;;7.20;99.90;;;;;;7370921;19;20493;-69
2023/03/17 06:06:59;;;;;;;5.53;3.75;;;7.30;99.90;;;;;;7367452;19;20022;-69
2023/03/17 06:09:26;;;;;;;6.53;3.72;;;7.30;99.90;;;;;;7361291;19;20029;-67
2023/03/17 06:11:53;;;;;;;5.05;3.40;;;7.40;99.90;;;;;;7371091;19;20015;-69
2023/03/17 06:14:39;;;;;;;6.53;4.18;;;7.40;99.90;;;;;;7370402;19;20026;-67
2023/03/17 06:17:25;;;;;;;6.60;3.72;;;7.40;99.90;;;;;;7370178;19;20011;-68
2023/03/17 06:20:13;;;;;;;5.88;3.70;;;7.50;99.90;;;;;;7366099;19;20047;-68
2023/03/17 06:22:40;;;;;;;7.07;3.92;;;7.60;99.90;;;;;;7371582;19;20817;-67
2023/03/17 06:25:07;;;;;;;6.43;3.85;;;7.70;99.90;;;;;;7371603;19;20049;-69
2023/03/17 06:27:37;;;;;;;6.05;3.33;;;7.70;99.90;;;;;;7368074;19;20023;-69
2023/03/17 06:30:07;;;;;;;6.68;3.65;;;7.80;99.90;;;;;;7369310;19;20022;-69
2023/03/17 06:32:33;;;;;;;6.30;3.67;;;7.90;99.90;;;;;;7369992;19;20018;-69
2023/03/17 06:35:00;;;;;;;5.82;3.72;;;7.90;99.90;;;;;;7368652;19;20025;-69
2023/03/17 06:37:27;;;;;;;7.05;4.10;;;8.00;99.90;;;;;;7363706;19;20066;-69
2023/03/17 06:39:55;;;;;;;7.63;3.85;;;8.00;99.90;;;;;;7365855;19;20029;-69
2023/03/17 06:42:23;;;;;;;7.93;3.72;;;8.10;99.90;;;;;;7370900;19;20018;-70
2023/03/17 06:44:51;;;;;;;9.18;3.20;;;8.20;99.90;;;;;;7371562;19;20047;-69
2023/03/17 06:47:20;;;;;;;6.10;3.85;;;8.20;99.90;;;;;;7366926;19;20018;-69
2023/03/17 06:49:46;;;;;;;7.97;4.15;;;8.20;99.90;;;;;;7372302;19;20615;-69
2023/03/17 06:52:12;;;;;;;6.70;3.97;;;8.30;99.90;;;;;;7366879;19;20473;-69
2023/03/17 06:54:40;;;;;;;6.15;3.70;;;8.20;99.90;;;;;;7372767;19;20470;-69
2023/03/17 06:57:11;;;;;;;8.48;3.97;;;8.20;99.90;;;;;;7370431;19;20896;-69
2023/03/17 06:59:37;;;;;;;6.97;3.72;;;8.30;99.90;;;;;;7369694;19;20029;-69
2023/03/17 07:02:04;;;;;;;7.63;4.28;;;8.30;99.90;;;;;;7366993;19;20019;-69
2023/03/17 07:04:30;;;;;;;7.93;4.63;;;8.30;99.90;;;;;;7364108;19;20031;-70
2023/03/17 07:06:57;;;;;;;7.22;3.78;;;8.40;99.90;;;;;;7360896;19;20433;-67
2023/03/17 07:09:23;;;;;;;6.43;4.45;;;8.40;99.90;;;;;;7361236;19;20029;-70
2023/03/17 07:11:49;;;;;;;6.15;3.88;;;8.50;99.90;;;;;;7365448;19;20026;-69
2023/03/17 07:14:15;;;;;;;8.10;4.18;;;8.50;99.90;;;;;;7373490;19;20047;-69
2023/03/17 07:16:42;;;;;;;6.57;4.15;;;8.50;99.90;;;;;;7367760;19;20022;-69
2023/03/17 07:19:08;;;;;;;6.07;3.95;;;8.60;99.90;;;;;;7370218;19;20018;-69
2023/03/17 07:21:35;;;;;;;6.45;4.20;;;8.60;99.90;;;;;;7372452;19;20018;-69
2023/03/17 07:24:03;;;;;;;5.97;4.30;;;8.70;99.90;;;;;;7375482;19;20032;-69
2023/03/17 07:26:30;;;;;;;6.65;3.97;;;8.70;99.90;;;;;;7371688;19;20020;-69
2023/03/17 07:28:59;;;;;;;7.97;4.15;;;8.90;99.90;;;;;;7373069;19;20045;-69
2023/03/17 07:31:27;;;;;;;4.95;3.80;;;9.00;99.90;;;;;;7372639;19;20030;-69
2023/03/17 07:33:53;;;;;;;6.53;4.15;;;9.00;99.90;;;;;;7375717;19;20030;-69
2023/03/17 07:36:19;;;;;;;6.40;3.92;;;9.10;99.90;;;;;;7370081;19;20515;-69
2023/03/17 07:38:46;;;;;;;7.05;4.13;;;9.00;99.90;;;;;;7374700;19;20018;-69
2023/03/17 07:41:12;;;;;;;6.32;3.78;;;9.00;99.90;;;;;;7372181;19;20022;-68
2023/03/17 07:43:38;;;;;;;6.68;4.00;;;9.10;99.90;;;;;;7375656;19;20018;-69
2023/03/17 07:46:05;;;;;;;6.05;3.88;;;9.10;99.90;;;;;;7374803;19;20022;-68
2023/03/17 07:48:32;;;;;;;5.93;3.88;;;9.10;99.90;;;;;;7372826;19;20028;-68
2023/03/17 07:50:59;;;;;;;5.60;3.50;;;9.20;99.90;;;;;;7374082;19;20465;-68
2023/03/17 07:53:28;;;;;;;5.95;4.53;;;9.30;99.90;;;;;;7375480;19;20042;-68
2023/03/17 07:55:54;;;;;;;7.32;3.75;;;9.40;99.90;;;;;;7376202;19;20019;-67
2023/03/17 07:58:24;;;;;;;5.30;3.75;;;9.50;99.90;;;;;;7372979;19;20015;-67
2023/03/17 08:00:50;;;;;;;9.77;4.20;;;9.70;99.90;;;;;;7370172;19;20018;-67
2023/03/17 08:03:18;;;;;;;6.47;3.95;;;10.10;99.90;;;;;;7370039;19;20361;-69
2023/03/17 08:05:45;;;;;;;6.80;3.90;;;10.40;99.90;;;;;;7372714;19;20027;-67
2023/03/17 08:08:12;;;;;;;8.93;4.10;;;10.50;99.90;;;;;;7372494;19;20085;-67
2023/03/17 08:10:39;;;;;;;6.30;4.32;;;10.40;99.90;;;;;;7374510;19;20360;-67
2023/03/17 08:13:08;;;;;;;6.53;4.20;;;10.40;99.90;;;;;;7372906;19;20070;-67
2023/03/17 08:15:35;;;;;;;6.15;4.18;;;10.40;99.90;;;;;;7373865;19;20266;-67
2023/03/17 08:18:01;;;;;;;6.10;4.20;;;10.40;99.90;;;;;;7369827;19;20019;-67
2023/03/17 08:20:27;;;;;;;6.35;4.30;;;10.30;99.90;;;;;;7374646;19;20090;-67
2023/03/17 08:22:54;;;;;;;7.95;4.43;;;10.20;99.90;;;;;;7370814;19;20086;-67
2023/03/17 08:25:22;;;;;;;5.38;3.85;;;10.30;99.90;;;;;;7374575;19;20340;-67
2023/03/17 08:27:48;;;;;;;6.13;4.75;;;10.30;99.90;;;;;;7371257;19;20235;-67
2023/03/17 08:30:15;;;;;;;6.43;3.92;;;10.50;99.90;;;;;;7375630;19;20100;-67
2023/03/17 08:32:42;;;;;;;7.07;4.18;;;10.70;99.90;;;;;;7369171;19;20029;-67
2023/03/17 08:35:17;;;;;;;5.70;3.67;;;10.90;99.90;;;;;;7372537;19;20481;-67
2023/03/17 08:37:45;;;;;;;7.35;4.03;;;11.10;99.90;;;;;;7374077;19;20022;-68
2023/03/17 08:40:15;;;;;;;5.95;3.92;;;11.20;99.90;;;;;;7364212;19;20015;-68
2023/03/17 08:42:43;;;;;;;5.25;3.88;;;11.50;99.90;;;;;;7371872;19;20086;-68
2023/03/17 08:45:11;;;;;;;6.75;3.92;;;11.60;99.90;;;;;;7370608;19;20863;-67
2023/03/17 08:47:38;;;;;;;7.78;3.88;;;11.60;99.90;;;;;;7370630;19;20021;-67
2023/03/17 08:50:07;;;;;;;7.95;4.18;;;11.60;99.90;;;;;;7369889;19;20374;-67
2023/03/17 08:52:36;;;;;;;8.27;4.82;;;11.60;99.90;;;;;;7369963;19;20014;-69
2023/03/17 08:55:07;;;;;;;;;;;11.70;99.90;;;;;;7369746;19;20538;-68
2023/03/17 08:57:34;;;;;;;6.60;4.00;;;11.90;99.90;;;;;;7369778;19;19938;-68
2023/03/17 09:00:09;;;;;;;6.53;4.30;;;12.40;99.90;;;;;;7363452;19;20025;-69
2023/03/17 09:02:41;;;;;;;6.30;4.00;;;12.80;99.90;;;;;;7370426;19;20489;-69
2023/03/17 09:05:12;;;;;;;10.13;4.60;;;13.20;99.90;;;;;;7373235;19;21013;-69
2023/03/17 09:07:40;;;;;;;6.97;4.03;;;13.50;99.90;;;;;;7370123;19;20505;-69
2023/03/17 09:10:07;;;;;;;6.25;3.30;;;13.50;99.90;;;;;;7367567;19;20022;-69
2023/03/17 09:12:34;;;;;;;7.70;4.32;;;13.70;99.90;;;;;;7366980;19;20041;-69
2023/03/17 09:15:00;;;;;;;6.63;3.92;;;13.90;99.90;;;;;;7367505;19;20015;-70
2023/03/17 09:17:27;;;;;;;5.93;3.83;;;14.00;99.90;;;;;;7365077;19;20468;-69
2023/03/17 09:19:53;;;;;;;7.03;3.80;;;14.30;99.90;;;;;;7370987;19;20019;-70
2023/03/17 09:22:19;;;;;;;5.25;3.58;;;14.90;99.90;;;;;;7368439;19;20386;-71
2023/03/17 09:24:46;;;;;;;5.72;3.95;;;15.30;99.90;;;;;;7370756;19;20025;-71
2023/03/17 09:27:13;;;;;;;7.22;3.70;;;15.70;99.90;;;;;;7371124;19;20022;-70
2023/03/17 09:29:41;;;;;;;5.93;4.00;;;16.00;99.90;;;;;;7362216;19;20044;-70
2023/03/17 09:32:07;;;;;;;5.88;3.80;;;16.70;92.50;;;;;;7370364;19;20018;-70
2023/03/17 09:34:34;;;;;;;7.85;3.80;;;17.40;97.00;;;;;;7368097;19;20022;-71
2023/03/17 09:37:00;;;;;;;7.60;4.17;;;17.90;90.00;;;;;;7374581;19;20022;-71
2023/03/17 09:39:27;;;;;;;6.15;3.47;;;18.00;67.20;;;;;;7369080;19;20242;-68
2023/03/17 09:42:06;;;;;;;7.10;3.75;;;18.30;65.40;;;;;;7371619;19;20018;-71
2023/03/17 09:44:55;;;;;;;6.85;3.90;;;18.60;65.80;;;;;;7371087;19;20023;-68
2023/03/17 09:47:54;;;;;;;6.40;3.20;;;19.00;61.30;;;;;;7369516;19;20022;-68
2023/03/17 09:51:05;;;;;;;6.47;3.30;;;19.50;64.10;;;;;;7371242;19;20018;-68
2023/03/17 09:53:59;;;;;;;5.65;3.10;;;19.20;59.40;;;;;;7369278;19;20037;-68
2023/03/17 09:56:27;;;;;;;5.00;3.05;;;19.60;61.00;;;;;;7372162;19;20010;-68
2023/03/17 09:58:58;;;;;;;7.05;3.85;;;19.20;62.60;;;;;;7369848;19;20757;-68
2023/03/17 10:01:25;;;;;;;7.20;3.67;;;18.70;59.00;;;;;;7370338;19;20058;-67
2023/03/17 10:03:51;;;;;;;6.13;3.53;;;18.80;60.00;;;;;;7370405;19;20043;-68
2023/03/17 10:06:48;;;;;;;5.15;3.45;;;18.90;60.90;;;;;;7370505;19;20054;-68
2023/03/17 10:09:48;;;;;;;6.47;3.95;;;19.50;56.80;;;;;;7363647;19;20015;-70
2023/03/17 10:12:23;;;;;;;6.55;4.10;;;18.80;55.90;;;;;;7364990;19;20769;-69
2023/03/17 10:15:05;;;;;;;6.65;4.13;;;18.80;57.20;;;;;;7362798;19;20669;-68
2023/03/17 10:17:39;;;;;;;5.03;3.50;;;19.30;57.50;;;;;;7362644;19;20043;-68
2023/03/17 10:20:19;;;;;;;4.88;3.30;;;19.70;58.80;;;;;;7363086;19;20018;-68
2023/03/17 10:22:51;;;;;;;6.83;3.80;;;19.60;55.80;;;;;;7362110;19;20022;-68
2023/03/17 10:25:34;;;;;;;5.07;3.72;;;19.90;57.70;;;;;;7369805;19;20338;-68
2023/03/17 10:28:14;;;;;;;4.70;3.17;;;20.40;57.00;;;;;;7369981;19;20010;-68
2023/03/17 10:30:42;;;;;;;8.00;4.07;;;20.90;56.50;;;;;;7367998;19;20017;-69
2023/03/17 10:33:08;;;;;;;8.05;3.70;;;21.00;57.80;;;;;;7369375;19;20876;-72
2023/03/17 10:35:38;;;;;;;5.95;3.90;;;21.40;55.60;;;;;;7365969;19;20673;-72
2023/03/17 10:38:36;;;;;;;6.90;4.00;;;21.00;56.40;;;;;;7371833;19;20074;-72
2023/03/17 10:41:12;;;;;;;5.18;3.55;;;21.00;52.80;;;;;;7367699;19;20026;-76
2023/03/17 10:43:44;;;;;;;8.32;4.45;;;20.40;55.60;;;;;;7370346;19;20029;-71
2023/03/17 10:46:21;;;;;;;6.13;3.90;;;20.40;55.70;;;;;;7372347;19;20505;-72
2023/03/17 10:48:55;;;;;;;20.38;17.80;;;20.50;56.10;;;;;;7371604;19;20022;-56
2023/03/17 10:51:31;;;;;;;20.90;17.90;;;20.70;55.50;;;;;;7371103;19;20608;-56
2023/03/17 10:54:16;;;;;;;9.82;7.05;;;20.60;57.00;;;;;;7378986;19;20022;-56
2023/03/17 10:56:49;;;;;;;7.35;4.32;;;20.30;57.10;;;;;;7373298;19;20347;-56
2023/03/17 10:59:26;;;;;;;10.52;8.88;;;19.10;56.90;;;;;;7377466;19;20082;-56
2023/03/17 11:02:05;;;;;;;5.40;3.85;;;18.70;58.90;;;;;;7375180;19;20014;-54
2023/03/17 11:04:38;;;;;;;6.82;4.07;;;18.80;60.50;;;;;;7375439;19;20018;-58
2023/03/17 11:07:37;;;;;;;7.70;4.30;;;18.70;60.80;;;;;;7369408;19;20022;-56
2023/03/17 11:10:13;;;;;;;7.25;4.57;;;18.70;60.70;;;;;;7373591;19;20084;-58
2023/03/17 11:12:40;;;;;;;7.90;4.97;;;18.90;61.50;;;;;;7377284;19;21268;-58
2023/03/17 11:15:13;;;;;;;8.13;5.47;;;19.00;62.10;;;;;;7379956;19;20014;-58
2023/03/17 11:18:06;;;;;;;8.43;4.68;;;19.40;60.90;;;;;;7374172;19;20089;-59
2023/03/17 11:20:54;;;;;;;7.00;4.03;;;19.90;60.00;;;;;;7380212;19;20014;-58
2023/03/17 11:23:30;;;;;;;6.90;4.30;;;20.70;58.90;;;;;;7374786;19;20031;-56
2023/03/17 11:26:07;;;;;;;6.18;4.07;;;21.40;57.70;;;;;;7377214;19;20023;-56
2023/03/17 11:28:39;;;;;;;8.15;4.00;;;21.70;55.70;;;;;;7378110;19;20018;-56
2023/03/17 11:31:09;;;;;;;;;;;22.50;55.80;;;;;;7374293;19;20046;-56
2023/03/17 11:33:38;;;;;;;6.55;4.63;;;22.20;54.30;;;;;;7373361;19;19923;-56
2023/03/17 11:36:39;;;;;;;6.22;4.50;;;23.00;56.00;;;;;;7376731;19;20010;-56
2023/03/17 11:39:15;;;;;;;5.85;4.28;;;22.90;52.10;;;;;;7371048;19;20011;-57
2023/03/17 11:41:45;;;;;;;8.55;5.22;;;22.90;53.40;;;;;;7377678;19;20055;-57
2023/03/17 11:44:29;;;;;;;11.02;8.57;;;23.00;53.70;;;;;;7375485;19;20018;-57
2023/03/17 11:47:22;;;;;;;9.82;7.45;;;23.00;52.90;;;;;;7373650;19;20026;-57
2023/03/17 11:50:30;;;;;;;6.43;4.45;;;22.60;51.60;;;;;;7376137;19;20015;-57
2023/03/17 11:53:19;;;;;;;7.60;4.22;;;23.40;53.30;;;;;;7372309;19;20750;-57
2023/03/17 11:55:52;;;;;;;7.53;6.47;;;23.30;51.00;;;;;;7368241;19;20025;-57
2023/03/17 11:58:43;;;;;;;7.45;5.85;;;23.00;51.00;;;;;;7374242;19;20031;-57
2023/03/17 12:01:16;;;;;;;8.20;5.30;;;22.60;51.10;;;;;;7374760;19;20115;-57
2023/03/17 12:03:48;;;;;;;7.82;4.57;;;21.80;52.20;;;;;;7372721;19;20777;-57
2023/03/17 12:06:29;;;;;;;6.70;5.28;;;22.10;53.30;;;;;;7369807;19;20043;-57
2023/03/17 12:09:07;;;;;;;6.80;4.97;;;21.50;53.10;;;;;;7377818;19;20481;-57
2023/03/17 12:11:39;;;;;;;7.35;4.35;;;21.10;52.70;;;;;;7376064;19;20026;-58
2023/03/17 12:14:18;;;;;;;;;;;21.40;55.10;;;;;;7374374;19;20078;-57
2023/03/17 12:17:20;;;;;;;6.13;4.72;;;21.00;53.80;;;;;;7376827;19;19963;-57
2023/03/17 12:20:00;;;;;;;;;;;20.60;54.80;;;;;;7373075;19;20028;-58
2023/03/17 12:22:35;;;;;;;7.10;5.22;;;19.90;55.10;;;;;;7372210;19;19934;-57
2023/03/17 12:25:29;;;;;;;7.85;4.60;;;20.20;55.50;;;;;;7372125;19;20085;-57
2023/03/17 12:28:27;;;;;;;7.43;4.80;;;20.20;55.90;;;;;;7373529;19;20018;-57
2023/03/17 12:31:03;;;;;;;8.48;4.90;;;20.50;56.00;;;;;;7370461;19;20015;-57
2023/03/17 12:33:59;;;;;;;9.18;4.55;;;20.50;54.70;;;;;;7376460;19;20034;-57
2023/03/17 12:36:26;;;;;;;8.07;4.70;;;20.20;55.80;;;;;;7372286;19;20018;-57
2023/03/17 12:39:09;;;;;;;7.68;4.57;;;20.00;55.80;;;;;;7376570;19;20021;-57
2023/03/17 12:41:41;;;;;;;8.00;5.22;;;20.20;55.20;;;;;;7376303;19;20031;-57
2023/03/17 12:44:24;;;;;;;9.13;6.43;;;19.70;55.50;;;;;;7375901;19;20018;-57
2023/03/17 12:47:03;;;;;;;9.30;6.60;;;19.30;56.80;;;;;;7373864;19;20023;-57
2023/03/17 12:49:44;;;;;;;8.18;6.10;;;19.10;57.50;;;;;;7371825;19;20022;-58
2023/03/17 12:52:17;;;;;;;8.18;6.00;;;18.80;59.40;;;;;;7369360;19;20029;-59
2023/03/17 12:54:47;;;;;;;21.73;17.17;;;18.40;59.80;;;;;;7373287;19;20026;-55
2023/03/17 12:57:28;;;;;;;9.73;6.05;;;18.20;60.20;;;;;;7370802;19;20014;-59
2023/03/17 13:00:29;;;;;;;12.80;7.45;;;18.10;60.70;;;;;;7374261;19;20624;-59
2023/03/17 13:03:24;;;;;;;7.97;5.97;;;18.10;60.30;;;;;;7367798;19;20577;-58
2023/03/17 13:05:57;;;;;;;10.50;6.72;;;18.10;61.20;;;;;;7367121;19;20081;-59
2023/03/17 13:08:35;;;;;;;12.15;7.13;;;18.20;61.50;;;;;;7372322;19;20026;-59
2023/03/17 13:11:36;;;;;;;9.43;5.40;;;18.80;62.20;;;;;;7372021;19;20852;-59
2023/03/17 13:14:23;;;;;;;8.10;5.88;;;19.80;60.90;;;;;;7376077;19;20371;-59
2023/03/17 13:16:49;;;;;;;9.10;6.68;;;20.00;59.60;;;;;;7374373;19;20014;-59